createdAt,value
2019-03-13T00:00:29.501Z,69.24
2019-03-13T00:02:58.153Z,69.36
2019-03-13T00:05:26.755Z,68.58
2019-03-13T00:07:55.400Z,68.41
2019-03-13T00:10:24.514Z,68.05
2019-03-13T00:12:53.158Z,68.52
2019-03-13T00:15:22.753Z,68.93
2019-03-13T00:17:51.371Z,69.23
2019-03-13T00:20:19.940Z,69.46
2019-03-13T00:22:48.515Z,70.28
2019-03-13T00:25:17.827Z,68.00
2019-03-13T00:27:46.407Z,68.48
2019-03-13T00:30:15.859Z,68.87
2019-03-13T00:32:44.359Z,69.29
2019-03-13T00:35:12.936Z,68.69
2019-03-13T00:37:41.487Z,68.15
2019-03-13T00:40:11.993Z,68.03
2019-03-13T00:42:40.630Z,68.34
2019-03-13T00:45:14.047Z,67.85
2019-03-13T00:47:42.594Z,68.38
2019-03-13T00:50:29.091Z,68.32
2019-03-13T00:52:57.812Z,68.35
2019-03-13T00:55:26.565Z,68.49
2019-03-13T00:57:55.195Z,71.53
2019-03-13T01:00:25.500Z,68.18
2019-03-13T01:02:55.339Z,67.43
2019-03-13T01:05:28.478Z,68.31
2019-03-13T01:07:57.404Z,68.17
2019-03-13T01:10:26.057Z,68.22
2019-03-13T01:12:54.660Z,68.01
2019-03-13T01:15:23.787Z,68.91
2019-03-13T01:17:52.296Z,69.07
2019-03-13T01:20:20.964Z,68.49
2019-03-13T01:22:49.509Z,68.37
2019-03-13T01:25:18.120Z,68.37
2019-03-13T01:27:47.943Z,68.38
2019-03-13T01:30:16.741Z,68.76
2019-03-13T01:32:53.206Z,72.25
2019-03-13T01:35:29.342Z,68.13
2019-03-13T01:37:57.944Z,67.76
2019-03-13T01:40:26.855Z,67.68
2019-03-13T01:42:55.435Z,66.98
2019-03-13T01:45:24.232Z,67.33
2019-03-13T01:47:52.855Z,67.75
2019-03-13T01:50:21.461Z,67.80
2019-03-13T01:52:49.946Z,68.27
2019-03-13T01:55:18.491Z,68.39
2019-03-13T01:57:47.090Z,68.25
2019-03-13T02:00:17.114Z,68.25
2019-03-13T02:02:45.604Z,68.61
2019-03-13T02:05:14.342Z,67.77
2019-03-13T02:07:42.849Z,69.33
2019-03-13T02:10:12.640Z,67.58
2019-03-13T02:12:41.218Z,66.92
2019-03-13T02:15:12.030Z,67.18
2019-03-13T02:17:40.764Z,66.60
2019-03-13T02:20:10.743Z,67.22
2019-03-13T02:22:39.564Z,67.47
2019-03-13T02:25:16.945Z,67.18
2019-03-13T02:27:45.589Z,67.67
2019-03-13T02:30:19.605Z,67.18
2019-03-13T02:32:48.191Z,67.35
2019-03-13T02:35:16.779Z,66.90
2019-03-13T02:37:45.366Z,67.58
2019-03-13T02:40:15.095Z,68.08
2019-03-13T02:42:43.668Z,72.94
2019-03-13T02:45:13.356Z,67.82
2019-03-13T02:47:41.905Z,67.32
2019-03-13T02:50:17.910Z,66.96
2019-03-13T02:52:46.534Z,67.12
2019-03-13T02:55:15.159Z,67.24
2019-03-13T02:57:43.718Z,67.63
2019-03-13T03:00:19.119Z,67.71
2019-03-13T03:02:49.374Z,67.74
2019-03-13T03:05:18.025Z,67.75
2019-03-13T03:07:46.574Z,68.26
2019-03-13T03:10:15.255Z,68.20
2019-03-13T03:12:43.870Z,68.03
2019-03-13T03:15:15.233Z,68.32
2019-03-13T03:17:43.705Z,70.05
2019-03-13T03:20:17.303Z,68.77
2019-03-13T03:22:45.750Z,68.00
2019-03-13T03:25:16.105Z,67.97
2019-03-13T03:27:44.747Z,67.98
2019-03-13T03:30:21.315Z,68.23
2019-03-13T03:32:49.935Z,67.93
2019-03-13T03:35:18.594Z,68.69
2019-03-13T03:37:47.217Z,68.58
2019-03-13T03:40:23.370Z,68.44
2019-03-13T03:42:52.431Z,68.20
2019-03-13T03:45:21.079Z,68.76
2019-03-13T03:47:49.664Z,68.09
2019-03-13T03:50:18.703Z,68.62
2019-03-13T03:52:47.424Z,69.43
2019-03-13T03:55:16.972Z,68.43
2019-03-13T03:57:45.609Z,67.69
2019-03-13T04:00:21.520Z,66.22
2019-03-13T04:02:50.099Z,66.49
2019-03-13T04:05:19.095Z,66.37
2019-03-13T04:07:47.697Z,66.21
2019-03-13T04:10:17.020Z,66.07
2019-03-13T04:12:45.641Z,65.89
2019-03-13T04:15:18.651Z,65.84
2019-03-13T04:17:47.231Z,65.02
2019-03-13T04:20:20.387Z,65.60
2019-03-13T04:22:49.232Z,65.65
2019-03-13T04:25:23.402Z,65.62
2019-03-13T04:27:52.013Z,65.77
2019-03-13T04:30:20.647Z,65.68
2019-03-13T04:32:49.148Z,64.12
2019-03-13T04:35:17.848Z,63.82
2019-03-13T04:37:46.479Z,64.90
2019-03-13T04:40:15.359Z,64.90
2019-03-13T04:42:43.980Z,64.19
2019-03-13T04:45:12.855Z,64.47
2019-03-13T04:47:41.577Z,64.41
2019-03-13T04:50:13.063Z,64.83
2019-03-13T04:52:41.632Z,64.67
2019-03-13T04:55:14.621Z,63.94
2019-03-13T04:57:43.236Z,64.34
2019-03-13T05:00:23.737Z,65.00
2019-03-13T05:02:52.273Z,65.61
2019-03-13T05:05:41.751Z,65.55
2019-03-13T05:08:12.874Z,64.22
2019-03-13T05:10:41.795Z,64.22
2019-03-13T05:13:10.544Z,64.08
2019-03-13T05:15:39.327Z,64.52
2019-03-13T05:18:07.973Z,64.86
2019-03-13T05:20:36.560Z,64.49
2019-03-13T05:23:05.219Z,64.63
2019-03-13T05:25:33.759Z,64.29
2019-03-13T05:28:02.424Z,64.60
2019-03-13T05:30:31.122Z,64.66
2019-03-13T05:32:59.655Z,64.00
2019-03-13T05:35:28.499Z,64.68
2019-03-13T05:37:57.405Z,64.94
2019-03-13T05:40:26.048Z,65.27
2019-03-13T05:42:54.632Z,63.66
2019-03-13T05:45:23.329Z,63.22
2019-03-13T05:47:51.865Z,63.19
2019-03-13T05:50:20.486Z,63.44
2019-03-13T05:52:49.047Z,63.61
2019-03-13T05:55:17.597Z,64.41
2019-03-13T05:57:46.068Z,63.19
2019-03-13T06:00:16.516Z,63.74
2019-03-13T06:02:47.754Z,63.90
2019-03-13T06:05:15.500Z,63.95
2019-03-13T06:07:44.022Z,63.62
2019-03-13T06:10:16.285Z,63.92
2019-03-13T06:12:44.713Z,64.60
2019-03-13T06:15:16.626Z,67.49
2019-03-13T06:17:45.244Z,63.96
2019-03-13T06:20:19.799Z,63.51
2019-03-13T06:22:48.487Z,64.17
2019-03-13T06:25:17.116Z,63.83
2019-03-13T06:27:46.664Z,63.34
2019-03-13T06:30:17.760Z,64.35
2019-03-13T06:32:46.379Z,64.13
2019-03-13T06:35:15.297Z,63.92
2019-03-13T06:37:43.914Z,64.13
2019-03-13T06:40:22.162Z,64.31
2019-03-13T06:42:50.724Z,64.82
2019-03-13T06:45:19.346Z,64.54
2019-03-13T06:47:47.926Z,65.54
2019-03-13T06:50:25.142Z,67.00
2019-03-13T06:52:53.711Z,64.17
2019-03-13T06:55:22.280Z,64.58
2019-03-13T06:57:50.860Z,64.94
2019-03-13T07:00:27.344Z,64.81
2019-03-13T07:03:12.780Z,65.95
2019-03-13T07:05:59.591Z,65.88
2019-03-13T07:08:33.259Z,66.14
2019-03-13T07:11:06.682Z,66.18
2019-03-13T07:13:39.541Z,66.63
2019-03-13T07:16:22.022Z,66.13
2019-03-13T07:18:55.091Z,66.01
2019-03-13T07:21:28.303Z,66.21
2019-03-13T07:24:01.232Z,68.18
2019-03-13T07:26:34.249Z,66.93
2019-03-13T07:29:20.958Z,66.07
2019-03-13T07:31:51.178Z,65.86
2019-03-13T07:34:37.518Z,66.40
2019-03-13T07:37:24.492Z,66.43
2019-03-13T07:40:06.419Z,67.35
2019-03-13T07:42:42.675Z,68.36
2019-03-13T07:45:16.414Z,69.22
2019-03-13T07:48:04.758Z,69.11
2019-03-13T07:50:37.618Z,69.80
2019-03-13T07:53:07.939Z,69.98
2019-03-13T07:55:52.926Z,69.65
2019-03-13T07:58:23.167Z,70.48
2019-03-13T08:00:53.369Z,71.94
2019-03-13T08:03:23.611Z,69.54
2019-03-13T08:05:56.912Z,69.55
2019-03-13T08:08:43.323Z,69.74
2019-03-13T08:11:13.461Z,70.13
2019-03-13T08:13:43.682Z,69.91
2019-03-13T08:16:29.667Z,69.55
2019-03-13T08:19:08.860Z,68.77
2019-03-13T08:21:39.094Z,68.34
2019-03-13T08:24:15.172Z,67.71
2019-03-13T08:27:00.679Z,67.72
2019-03-13T08:29:34.385Z,67.39
2019-03-13T08:32:21.447Z,67.13
2019-03-13T08:35:03.833Z,69.26
2019-03-13T08:37:50.825Z,67.26
2019-03-13T08:40:30.280Z,66.02
2019-03-13T08:43:06.703Z,66.41
2019-03-13T08:45:52.227Z,66.10
2019-03-13T08:48:25.438Z,67.00
2019-03-13T08:50:55.674Z,67.53
2019-03-13T08:53:28.697Z,67.29
2019-03-13T08:56:10.763Z,67.33
2019-03-13T08:58:55.906Z,67.26
2019-03-13T09:01:35.077Z,67.36
2019-03-13T09:04:23.447Z,67.78
2019-03-13T09:07:09.824Z,68.47
2019-03-13T09:09:42.434Z,69.08
2019-03-13T09:12:12.681Z,69.69
2019-03-13T09:14:42.936Z,68.64
2019-03-13T09:17:15.528Z,68.60
2019-03-13T09:19:54.315Z,69.56
2019-03-13T09:22:30.202Z,69.14
2019-03-13T09:25:11.861Z,69.14
2019-03-13T09:27:47.398Z,70.37
2019-03-13T09:30:17.748Z,70.37
2019-03-13T09:32:48.016Z,70.90
2019-03-13T09:35:27.502Z,70.90
2019-03-13T09:37:57.754Z,70.66
2019-03-13T09:40:39.900Z,70.97
2019-03-13T09:43:10.119Z,71.54
2019-03-13T09:45:52.474Z,72.31
2019-03-13T09:48:31.697Z,70.99
2019-03-13T09:51:08.738Z,71.25
2019-03-13T09:53:41.608Z,71.01
2019-03-13T09:56:26.953Z,70.86
2019-03-13T09:59:06.090Z,70.75
2019-03-13T10:01:39.241Z,70.52
2019-03-13T10:04:21.556Z,70.15
2019-03-13T10:07:07.093Z,69.87
2019-03-13T10:09:52.151Z,69.82
2019-03-13T10:12:25.373Z,69.80
2019-03-13T10:15:01.104Z,69.07
2019-03-13T10:17:43.767Z,69.49
2019-03-13T10:20:19.783Z,69.80
2019-03-13T10:23:06.955Z,71.44
2019-03-13T10:25:39.974Z,68.65
2019-03-13T10:28:16.089Z,68.20
2019-03-13T10:30:46.325Z,68.68
2019-03-13T10:33:22.260Z,68.20
2019-03-13T10:35:58.277Z,67.77
2019-03-13T10:38:28.533Z,67.96
2019-03-13T10:41:04.936Z,68.61
2019-03-13T10:43:51.605Z,68.68
2019-03-13T10:46:21.795Z,68.10
2019-03-13T10:49:08.517Z,68.08
2019-03-13T10:51:41.503Z,68.45
2019-03-13T10:54:20.811Z,68.40
2019-03-13T10:56:57.093Z,71.13
2019-03-13T10:59:27.316Z,66.90
2019-03-13T11:02:09.587Z,66.49
2019-03-13T11:04:55.315Z,67.10
2019-03-13T11:07:41.960Z,65.86
2019-03-13T11:10:15.727Z,65.52
2019-03-13T11:12:48.859Z,65.64
2019-03-13T11:15:24.986Z,65.19
2019-03-13T11:18:00.841Z,65.21
2019-03-13T11:20:39.852Z,64.78
2019-03-13T11:23:16.138Z,64.87
2019-03-13T11:25:58.720Z,65.20
2019-03-13T11:28:38.052Z,65.50
2019-03-13T11:31:14.247Z,67.37
2019-03-13T11:34:00.748Z,66.84
2019-03-13T11:36:40.113Z,65.26
2019-03-13T11:39:19.579Z,65.12
2019-03-13T11:41:49.815Z,65.15
2019-03-13T11:44:32.186Z,64.84
2019-03-13T11:47:08.132Z,64.88
2019-03-13T11:49:41.362Z,64.97
2019-03-13T11:52:30.077Z,65.07
2019-03-13T11:55:16.401Z,65.47
2019-03-13T11:57:55.879Z,65.48
2019-03-13T12:00:32.131Z,65.68
2019-03-13T12:03:05.430Z,65.00
2019-03-13T12:05:38.616Z,65.94
2019-03-13T12:08:08.866Z,67.33
2019-03-13T12:10:39.094Z,66.03
2019-03-13T12:13:10.629Z,67.32
2019-03-13T12:15:57.686Z,67.53
2019-03-13T12:18:27.912Z,68.72
2019-03-13T12:21:10.091Z,69.46
2019-03-13T12:23:56.164Z,68.81
2019-03-13T12:26:38.318Z,69.33
2019-03-13T12:29:20.667Z,69.17
2019-03-13T12:31:50.893Z,69.34
2019-03-13T12:34:26.962Z,69.69
2019-03-13T12:37:13.252Z,69.54
2019-03-13T12:39:46.635Z,70.64
2019-03-13T12:42:16.874Z,75.73
2019-03-13T12:44:56.142Z,71.18
2019-03-13T12:47:32.170Z,70.50
2019-03-13T12:50:05.124Z,71.29
2019-03-13T12:52:35.626Z,71.44
2019-03-13T12:55:12.663Z,71.73
2019-03-13T12:57:46.147Z,72.38
2019-03-13T13:00:19.326Z,72.78
2019-03-13T13:02:55.341Z,72.90
2019-03-13T13:05:28.278Z,73.98
2019-03-13T13:08:04.533Z,73.52
2019-03-13T13:10:51.051Z,73.49
2019-03-13T13:13:24.397Z,74.20
2019-03-13T13:16:00.776Z,74.46
2019-03-13T13:18:47.545Z,75.68
2019-03-13T13:21:16.244Z,73.71
2019-03-13T13:23:44.837Z,72.82
2019-03-13T13:26:13.414Z,74.03
2019-03-13T13:28:42.057Z,73.76
2019-03-13T13:31:10.653Z,72.96
2019-03-13T13:33:39.372Z,72.97
2019-03-13T13:36:08.250Z,71.87
2019-03-13T13:38:36.887Z,72.24
2019-03-13T13:41:05.517Z,72.10
2019-03-13T13:43:34.924Z,72.50
2019-03-13T13:46:12.285Z,72.82
2019-03-13T13:48:40.865Z,72.43
2019-03-13T13:51:09.456Z,73.94
2019-03-13T13:53:38.060Z,77.38
2019-03-13T13:56:06.648Z,73.89
2019-03-13T13:58:35.198Z,73.27
2019-03-13T14:01:04.062Z,72.69
2019-03-13T14:03:32.656Z,74.28
2019-03-13T14:06:01.422Z,73.40
2019-03-13T14:08:30.020Z,73.66
2019-03-13T14:10:58.606Z,74.40
2019-03-13T14:13:27.239Z,73.51
2019-03-13T14:15:55.819Z,73.97
2019-03-13T14:18:24.525Z,74.69
2019-03-13T14:20:53.181Z,74.93
2019-03-13T14:23:21.740Z,74.11
2019-03-13T14:25:50.400Z,75.05
2019-03-13T14:28:19.027Z,76.08
2019-03-13T14:30:47.617Z,76.62
2019-03-13T14:33:16.246Z,74.06
2019-03-13T14:35:46.348Z,73.47
2019-03-13T14:38:15.150Z,73.87
2019-03-13T14:40:43.779Z,73.70
2019-03-13T14:43:12.387Z,74.73
2019-03-13T14:45:41.187Z,74.93
2019-03-13T14:48:09.643Z,74.46
2019-03-13T14:50:38.265Z,74.39
2019-03-13T14:53:06.929Z,75.13
2019-03-13T14:55:36.471Z,73.68
2019-03-13T14:58:05.427Z,73.28
2019-03-13T15:00:34.013Z,73.48
2019-03-13T15:03:02.641Z,73.54
2019-03-13T15:05:31.232Z,75.83
2019-03-13T15:07:59.912Z,72.91
2019-03-13T15:10:28.933Z,72.45
2019-03-13T15:12:57.612Z,71.87
2019-03-13T15:15:26.119Z,71.66
2019-03-13T15:17:54.688Z,71.88
2019-03-13T15:20:24.889Z,71.81
2019-03-13T15:22:53.501Z,72.19
2019-03-13T15:25:22.163Z,72.62
2019-03-13T15:27:50.846Z,73.01
2019-03-13T15:30:33.037Z,74.02
2019-03-13T15:33:01.610Z,73.20
2019-03-13T15:35:30.530Z,73.41
2019-03-13T15:38:02.423Z,74.34
2019-03-13T15:40:30.986Z,78.82
2019-03-13T15:42:59.625Z,73.22
2019-03-13T15:45:35.845Z,73.04
2019-03-13T15:48:04.739Z,72.02
2019-03-13T15:50:33.371Z,72.78
2019-03-13T15:53:01.992Z,73.17
2019-03-13T15:55:30.597Z,73.20
2019-03-13T15:57:59.117Z,73.56
2019-03-13T16:00:28.733Z,73.69
2019-03-13T16:02:57.252Z,73.52
2019-03-13T16:05:25.898Z,73.05
2019-03-13T16:07:54.497Z,73.07
2019-03-13T16:10:23.466Z,72.39
2019-03-13T16:12:53.821Z,73.20
2019-03-13T16:15:26.056Z,73.94
2019-03-13T16:17:55.303Z,71.97
2019-03-13T16:20:23.894Z,71.31
2019-03-13T16:22:54.204Z,72.19
2019-03-13T16:25:22.805Z,71.79
2019-03-13T16:27:51.386Z,73.09
2019-03-13T16:30:22.887Z,71.76
2019-03-13T16:32:51.578Z,73.04
2019-03-13T16:35:20.206Z,72.76
2019-03-13T16:37:48.808Z,73.85
2019-03-13T16:40:18.827Z,73.58
2019-03-13T16:42:47.666Z,74.11
2019-03-13T16:45:19.189Z,73.96
2019-03-13T16:47:47.900Z,74.36
2019-03-13T16:50:25.413Z,74.46
2019-03-13T16:52:54.003Z,75.04
2019-03-13T16:55:22.597Z,72.78
2019-03-13T16:57:51.300Z,72.62
2019-03-13T17:00:27.350Z,73.37
2019-03-13T17:02:56.032Z,73.55
2019-03-13T17:05:24.672Z,74.05
2019-03-13T17:07:53.256Z,73.44
2019-03-13T17:10:26.638Z,73.29
2019-03-13T17:12:55.395Z,74.02
2019-03-13T17:15:24.887Z,74.34
2019-03-13T17:17:54.137Z,74.78
2019-03-13T17:20:28.361Z,74.99
2019-03-13T17:22:57.038Z,74.58
2019-03-13T17:25:25.697Z,75.41
2019-03-13T17:27:54.276Z,75.64
2019-03-13T17:30:30.103Z,74.08
2019-03-13T17:32:59.105Z,74.66
2019-03-13T17:35:27.831Z,74.36
2019-03-13T17:37:56.446Z,74.74
2019-03-13T17:40:26.371Z,74.82
2019-03-13T17:42:55.191Z,74.78
2019-03-13T17:45:25.025Z,75.36
2019-03-13T17:47:53.944Z,76.17
2019-03-13T17:50:23.646Z,75.22
2019-03-13T17:52:52.376Z,75.20
2019-03-13T17:55:23.130Z,75.15
2019-03-13T17:57:51.762Z,75.49
2019-03-13T18:00:28.023Z,75.88
2019-03-13T18:02:56.736Z,77.12
2019-03-13T18:05:25.506Z,75.24
2019-03-13T18:07:54.219Z,74.39
2019-03-13T18:10:23.016Z,74.12
2019-03-13T18:12:51.677Z,73.78
2019-03-13T18:15:20.287Z,73.36
2019-03-13T18:17:49.054Z,74.12
2019-03-13T18:20:22.166Z,74.46
2019-03-13T18:22:50.989Z,74.32
2019-03-13T18:25:19.624Z,74.24
2019-03-13T18:27:48.218Z,74.22
2019-03-13T18:30:28.573Z,74.08
2019-03-13T18:32:57.218Z,73.62
2019-03-13T18:35:25.796Z,74.17
2019-03-13T18:37:54.461Z,75.82
2019-03-13T18:40:24.016Z,73.85
2019-03-13T18:42:52.595Z,73.16
2019-03-13T18:45:26.342Z,73.18
2019-03-13T18:47:54.947Z,73.73
2019-03-13T18:50:23.961Z,73.74
2019-03-13T18:52:52.592Z,73.26
2019-03-13T18:55:23.652Z,73.26
2019-03-13T18:57:52.288Z,73.32
2019-03-13T19:00:35.001Z,71.96
2019-03-13T19:03:03.821Z,72.04
2019-03-13T19:05:34.421Z,71.82
2019-03-13T19:08:03.062Z,72.21
2019-03-13T19:10:32.735Z,73.85
2019-03-13T19:13:01.309Z,76.43
2019-03-13T19:15:30.365Z,73.27
2019-03-13T19:18:00.791Z,72.50
2019-03-13T19:20:31.362Z,72.58
2019-03-13T19:23:00.357Z,72.86
2019-03-13T19:25:29.021Z,72.86
2019-03-13T19:27:57.631Z,73.81
2019-03-13T19:30:28.499Z,72.73
2019-03-13T19:32:57.100Z,73.44
2019-03-13T19:35:25.900Z,73.41
2019-03-13T19:37:56.095Z,73.42
2019-03-13T19:40:24.727Z,72.91
2019-03-13T19:42:53.361Z,72.50
2019-03-13T19:45:33.899Z,72.75
2019-03-13T19:48:02.562Z,74.17
2019-03-13T19:50:31.366Z,74.03
2019-03-13T19:53:00.051Z,72.96
2019-03-13T19:55:28.638Z,71.83
2019-03-13T19:57:57.421Z,71.39
2019-03-13T20:00:26.478Z,72.17
2019-03-13T20:03:01.020Z,71.86
2019-03-13T20:05:29.701Z,71.73
2019-03-13T20:07:58.399Z,71.52
2019-03-13T20:10:30.665Z,71.98
2019-03-13T20:12:59.298Z,71.55
2019-03-13T20:15:29.881Z,71.86
2019-03-13T20:17:58.512Z,71.55
2019-03-13T20:20:27.081Z,71.54
2019-03-13T20:23:12.888Z,72.35
2019-03-13T20:25:41.507Z,75.21
2019-03-13T20:28:10.080Z,71.37
2019-03-13T20:30:38.845Z,70.85
2019-03-13T20:33:07.590Z,70.63
2019-03-13T20:35:36.986Z,70.70
2019-03-13T20:38:06.025Z,70.78
2019-03-13T20:40:34.562Z,70.96
2019-03-13T20:43:03.233Z,72.49
2019-03-13T20:45:32.214Z,72.34
2019-03-13T20:48:00.965Z,71.93
2019-03-13T20:50:36.682Z,72.02
2019-03-13T20:52:59.974Z,72.07
2019-03-13T20:55:28.709Z,72.67
2019-03-13T20:57:57.286Z,72.93
2019-03-13T21:00:26.968Z,75.19
2019-03-13T21:02:56.731Z,72.44
2019-03-13T21:05:25.724Z,71.52
2019-03-13T21:07:54.871Z,71.50
2019-03-13T21:10:23.832Z,72.10
2019-03-13T21:12:52.431Z,71.73
2019-03-13T21:15:23.123Z,72.48
2019-03-13T21:17:51.722Z,73.22
2019-03-13T21:20:21.445Z,73.10
2019-03-13T21:22:50.064Z,72.98
2019-03-13T21:25:25.461Z,73.05
2019-03-13T21:27:54.094Z,73.02
2019-03-13T21:30:26.483Z,73.49
2019-03-13T21:32:55.082Z,73.41
2019-03-13T21:35:24.159Z,76.60
2019-03-13T21:37:52.823Z,72.21
2019-03-13T21:40:28.528Z,71.83
2019-03-13T21:42:57.151Z,71.98
2019-03-13T21:45:25.787Z,72.26
2019-03-13T21:47:54.482Z,71.39
2019-03-13T21:50:23.331Z,72.59
2019-03-13T21:52:52.193Z,72.94
2019-03-13T21:55:20.871Z,72.22
2019-03-13T21:57:51.994Z,72.59
2019-03-13T22:00:24.725Z,72.64
2019-03-13T22:02:53.516Z,72.34
2019-03-13T22:05:26.360Z,72.11
2019-03-13T22:07:53.301Z,72.06
2019-03-13T22:10:21.975Z,73.66
2019-03-13T22:12:50.685Z,72.58
2019-03-13T22:15:20.492Z,72.17
2019-03-13T22:17:49.112Z,71.42
2019-03-13T22:20:18.432Z,72.26
2019-03-13T22:22:47.311Z,71.31
2019-03-13T22:25:17.610Z,72.07
2019-03-13T22:27:46.194Z,71.96
2019-03-13T22:30:20.059Z,72.01
2019-03-13T22:32:48.639Z,72.10
2019-03-13T22:35:17.357Z,72.41
2019-03-13T22:37:46.011Z,72.42
2019-03-13T22:40:16.429Z,71.71
2019-03-13T22:42:45.522Z,72.09
2019-03-13T22:45:18.379Z,72.73
2019-03-13T22:47:47.060Z,73.24
2019-03-13T22:50:19.884Z,71.40
2019-03-13T22:52:48.483Z,71.32
2019-03-13T22:55:17.468Z,69.83
2019-03-13T22:57:46.113Z,71.01
2019-03-13T23:00:25.313Z,72.03
2019-03-13T23:02:54.120Z,71.45
2019-03-13T23:05:22.804Z,70.53
2019-03-13T23:07:51.403Z,71.44
2019-03-13T23:10:33.668Z,71.44
2019-03-13T23:13:02.244Z,69.99
2019-03-13T23:15:30.941Z,71.17
2019-03-13T23:17:59.687Z,71.33
2019-03-13T23:20:28.262Z,72.00
2019-03-13T23:22:56.848Z,73.45
2019-03-13T23:25:25.375Z,70.95
2019-03-13T23:27:53.967Z,70.80
2019-03-13T23:30:22.586Z,70.91
2019-03-13T23:32:51.018Z,71.19
2019-03-13T23:35:19.635Z,70.57
2019-03-13T23:37:48.264Z,70.95
2019-03-13T23:40:16.848Z,71.88
2019-03-13T23:42:45.542Z,72.24
2019-03-13T23:45:14.223Z,71.96
2019-03-13T23:47:43.002Z,72.17
2019-03-13T23:50:12.906Z,72.23
2019-03-13T23:52:41.476Z,71.76
2019-03-13T23:55:10.294Z,72.17
2019-03-13T23:57:38.896Z,75.04
